Time;durP1;ratioP1;P1;durP2;ratioP2;P2;SDS_P1;SDS_P2;PMS_P1;PMS_P2;Temp;Humidity;BMP_temperature;BMP_pressure;BME280_temperature;BME280_humidity;BME280_pressure;Samples;Min_cycle;Max_cycle;Signal;HPM_P1;HPM_P2
2021/04/17 00:00:27;;;;;;;5.73;3.27;;;;;;;;;;4993352;28;20230;-71
2021/04/17 00:02:53;;;;;;;6.57;3.60;;;;;;;;;;4975655;28;20670;-72
2021/04/17 00:05:18;;;;;;;4.70;3.27;;;;;;;;;;4992930;28;20219;-72
2021/04/17 00:07:44;;;;;;;6.33;3.37;;;;;;;;;;4991607;28;20681;-72
2021/04/17 00:10:11;;;;;;;5.23;3.50;;;;;;;;;;4992127;28;20184;-72
2021/04/17 00:12:37;;;;;;;6.70;3.53;;;;;;;;;;4992015;28;20193;-72
2021/04/17 00:15:03;;;;;;;6.83;3.60;;;;;;;;;;4991845;28;20570;-72
2021/04/17 00:17:29;;;;;;;5.17;3.43;;;;;;;;;;4991986;28;20682;-72
2021/04/17 00:19:55;;;;;;;5.80;3.10;;;;;;;;;;4991894;28;20204;-72
2021/04/17 00:22:21;;;;;;;6.20;3.80;;;;;;;;;;4991680;28;20197;-72
2021/04/17 00:24:47;;;;;;;5.80;3.50;;;;;;;;;;4975592;28;20208;-72
2021/04/17 00:27:14;;;;;;;6.33;3.50;;;;;;;;;;4991816;28;20180;-72
2021/04/17 00:29:40;;;;;;;5.10;3.53;;;;;;;;;;4991048;28;20214;-72
2021/04/17 00:32:07;;;;;;;7.03;3.27;;;;;;;;;;4975816;28;20359;-72
2021/04/17 00:34:33;;;;;;;6.13;3.20;;;;;;;;;;4992966;28;20298;-71
2021/04/17 00:36:59;;;;;;;6.07;3.37;;;;;;;;;;4975508;28;20207;-72
2021/04/17 00:39:25;;;;;;;5.53;3.67;;;;;;;;;;4991816;28;20183;-72
2021/04/17 00:41:51;;;;;;;6.20;3.80;;;;;;;;;;4991700;28;20180;-72
2021/04/17 00:44:17;;;;;;;5.50;3.47;;;;;;;;;;4993044;28;20204;-75
2021/04/17 00:46:43;;;;;;;7.30;3.80;;;;;;;;;;4975362;28;20184;-73
2021/04/17 00:49:09;;;;;;;4.70;3.23;;;;;;;;;;4991865;28;20176;-73
2021/04/17 00:51:36;;;;;;;6.63;3.57;;;;;;;;;;5000521;28;20273;-72
2021/04/17 00:54:03;;;;;;;7.30;3.70;;;;;;;;;;5011167;28;20223;-72
2021/04/17 00:56:29;;;;;;;5.57;3.30;;;;;;;;;;5012183;28;20190;-74
2021/04/17 00:58:55;;;;;;;6.57;3.57;;;;;;;;;;5010798;28;20184;-72
2021/04/17 01:01:21;;;;;;;7.30;3.57;;;;;;;;;;5011114;28;20351;-72
2021/04/17 01:03:54;;;;;;;5.93;3.70;;;;;;;;;;5011225;28;20551;-71
2021/04/17 01:06:22;;;;;;;4.93;3.37;;;;;;;;;;5017440;23;20304;-75
2021/04/17 01:08:50;;;;;;;5.90;3.37;;;;;;;;;;5023933;28;20208;-76
2021/04/17 01:11:21;;;;;;;5.47;3.70;;;;;;;;;;5007567;28;20725;-75
2021/04/17 01:13:47;;;;;;;6.03;3.37;;;;;;;;;;5023856;28;20180;-75
2021/04/17 01:16:13;;;;;;;7.10;3.97;;;;;;;;;;5029054;28;20202;-75
2021/04/17 01:33:58;;;;;;;8.97;3.60;;;;;;;;;;5011289;28;20233;-76
2021/04/17 01:36:25;;;;;;;5.37;3.30;;;;;;;;;;5010780;28;20198;-74
2021/04/17 01:38:52;;;;;;;7.83;4.20;;;;;;;;;;5011145;28;20206;-74
2021/04/17 01:41:26;;;;;;;8.43;4.00;;;;;;;;;;5012802;28;20213;-76
2021/04/17 01:43:53;;;;;;;8.30;3.80;;;;;;;;;;5015762;28;20177;-76
2021/04/17 01:46:20;;;;;;;6.87;3.33;;;;;;;;;;4998144;28;20208;-76
2021/04/17 01:48:46;;;;;;;5.00;3.60;;;;;;;;;;5014488;28;20259;-76
2021/04/17 01:51:12;;;;;;;5.20;3.53;;;;;;;;;;5014507;28;20282;-76
2021/04/17 01:53:38;;;;;;;7.90;4.00;;;;;;;;;;5014549;28;20174;-76
2021/04/17 01:56:04;;;;;;;8.23;4.30;;;;;;;;;;5014373;28;20747;-76
2021/04/17 01:58:31;;;;;;;7.97;3.53;;;;;;;;;;5014415;28;20659;-76
2021/04/17 02:00:58;;;;;;;6.63;3.90;;;;;;;;;;5014173;28;20213;-76
2021/04/17 02:03:24;;;;;;;5.10;3.50;;;;;;;;;;5015345;28;20215;-76
2021/04/17 02:05:50;;;;;;;6.43;4.03;;;;;;;;;;5015400;28;20217;-76
2021/04/17 02:08:17;;;;;;;7.03;3.77;;;;;;;;;;5015454;28;20263;-74
2021/04/17 02:10:43;;;;;;;6.30;3.77;;;;;;;;;;5014188;28;20192;-76
2021/04/17 02:13:09;;;;;;;6.63;4.07;;;;;;;;;;5015181;28;20181;-76
2021/04/17 02:15:38;;;;;;;9.77;4.00;;;;;;;;;;5014170;28;20676;-76
2021/04/17 02:18:20;;;;;;;6.77;3.83;;;;;;;;;;5013526;28;20642;-76
2021/04/17 02:20:48;;;;;;;7.83;3.80;;;;;;;;;;5013982;28;20678;-76
2021/04/17 02:23:14;;;;;;;7.07;4.00;;;;;;;;;;5013829;28;20186;-76
2021/04/17 02:25:40;;;;;;;6.37;3.80;;;;;;;;;;4997609;28;20280;-76
2021/04/17 02:28:06;;;;;;;6.60;3.60;;;;;;;;;;4997326;28;20185;-75
2021/04/17 02:30:32;;;;;;;7.70;4.07;;;;;;;;;;5015073;28;20205;-76
2021/04/17 02:33:01;;;;;;;6.40;4.07;;;;;;;;;;4997405;28;20186;-76
2021/04/17 02:35:27;;;;;;;6.20;4.10;;;;;;;;;;4997316;28;20488;-76
2021/04/17 02:37:53;;;;;;;5.70;3.80;;;;;;;;;;5014469;28;20187;-76
2021/04/17 02:40:19;;;;;;;6.10;3.87;;;;;;;;;;5012727;28;20206;-76
2021/04/17 02:42:45;;;;;;;7.73;3.73;;;;;;;;;;5013577;28;20205;-76
2021/04/17 02:45:11;;;;;;;6.83;4.00;;;;;;;;;;5013611;28;20198;-76
2021/04/17 02:47:37;;;;;;;6.23;4.03;;;;;;;;;;4996744;28;20641;-76
2021/04/17 02:50:03;;;;;;;5.00;4.00;;;;;;;;;;5013282;28;20258;-76
2021/04/17 02:52:29;;;;;;;9.67;4.30;;;;;;;;;;5012422;28;20739;-76
2021/04/17 02:54:55;;;;;;;6.57;4.07;;;;;;;;;;5014313;28;20256;-76
2021/04/17 02:57:21;;;;;;;6.83;4.20;;;;;;;;;;4996816;28;20183;-76
2021/04/17 02:59:47;;;;;;;7.20;3.80;;;;;;;;;;4996850;28;20196;-77
2021/04/17 03:02:14;;;;;;;8.33;4.27;;;;;;;;;;4996927;28;20212;-76
2021/04/17 03:04:40;;;;;;;7.73;4.27;;;;;;;;;;5012917;28;20194;-76
2021/04/17 03:07:06;;;;;;;6.93;4.20;;;;;;;;;;5014167;28;20200;-76
2021/04/17 03:09:32;;;;;;;10.63;3.97;;;;;;;;;;4996672;28;20190;-75
2021/04/17 03:11:58;;;;;;;6.90;4.13;;;;;;;;;;4996728;28;20178;-76
2021/04/17 03:14:24;;;;;;;7.73;3.83;;;;;;;;;;5012979;28;20524;-76
2021/04/17 03:16:50;;;;;;;8.47;4.03;;;;;;;;;;4996267;28;20188;-76
2021/04/17 03:19:16;;;;;;;7.30;3.90;;;;;;;;;;5012846;28;20175;-76
2021/04/17 03:21:43;;;;;;;9.97;4.03;;;;;;;;;;5013849;28;20360;-76
2021/04/17 03:24:09;;;;;;;8.03;4.33;;;;;;;;;;4996599;28;20207;-76
2021/04/17 03:26:35;;;;;;;6.97;3.80;;;;;;;;;;5012703;28;20201;-76
2021/04/17 03:29:01;;;;;;;7.90;4.63;;;;;;;;;;5012694;28;20190;-76
2021/04/17 03:31:27;;;;;;;5.80;3.70;;;;;;;;;;5012470;28;20188;-76
2021/04/17 03:33:53;;;;;;;6.83;3.90;;;;;;;;;;5012712;28;20183;-76
2021/04/17 03:36:19;;;;;;;7.13;4.20;;;;;;;;;;4996175;28;20201;-76
2021/04/17 03:38:45;;;;;;;7.23;4.37;;;;;;;;;;4995933;28;20186;-76
2021/04/17 03:41:11;;;;;;;5.73;3.93;;;;;;;;;;5012430;28;20748;-77
2021/04/17 03:43:37;;;;;;;8.60;4.70;;;;;;;;;;5012552;28;20206;-76
2021/04/17 03:46:04;;;;;;;8.57;4.60;;;;;;;;;;5012312;28;20281;-77
2021/04/17 03:48:30;;;;;;;8.77;4.37;;;;;;;;;;4996085;28;20189;-76
2021/04/17 03:50:56;;;;;;;6.40;4.47;;;;;;;;;;5012470;28;20185;-76
2021/04/17 03:53:21;;;;;;;9.30;4.57;;;;;;;;;;5013255;28;20182;-76
2021/04/17 03:55:47;;;;;;;10.90;4.43;;;;;;;;;;4995729;28;20577;-76
2021/04/17 03:58:13;;;;;;;7.37;4.67;;;;;;;;;;5013110;28;20185;-76
2021/04/17 04:00:39;;;;;;;9.00;4.70;;;;;;;;;;5011883;28;20218;-76
2021/04/17 04:03:05;;;;;;;8.73;4.47;;;;;;;;;;5011780;28;20168;-76
2021/04/17 04:05:31;;;;;;;5.57;4.30;;;;;;;;;;5012951;28;20685;-75
2021/04/17 04:07:57;;;;;;;7.67;4.50;;;;;;;;;;4995330;28;20237;-76
2021/04/17 04:10:23;;;;;;;9.37;4.50;;;;;;;;;;5011983;28;20650;-76
2021/04/17 04:12:49;;;;;;;7.77;4.53;;;;;;;;;;5011867;28;20242;-76
2021/04/17 04:15:15;;;;;;;8.20;4.67;;;;;;;;;;5011817;28;20206;-76
2021/04/17 04:17:41;;;;;;;9.53;4.93;;;;;;;;;;5011640;28;20176;-76
2021/04/17 04:20:07;;;;;;;7.63;4.50;;;;;;;;;;4995423;28;20208;-76
2021/04/17 04:22:34;;;;;;;6.23;4.20;;;;;;;;;;5011613;28;20664;-76
2021/04/17 04:25:00;;;;;;;11.00;4.43;;;;;;;;;;5011594;28;20324;-76
2021/04/17 04:27:26;;;;;;;7.77;4.13;;;;;;;;;;5012718;28;20191;-76
2021/04/17 04:29:52;;;;;;;8.77;4.37;;;;;;;;;;5011530;28;20203;-76
2021/04/17 04:32:21;;;;;;;10.53;4.50;;;;;;;;;;4995581;28;20203;-76
2021/04/17 04:34:47;;;;;;;8.87;4.37;;;;;;;;;;5011854;28;20248;-76
2021/04/17 04:37:13;;;;;;;8.20;3.90;;;;;;;;;;5012550;28;20184;-76
2021/04/17 04:39:39;;;;;;;9.90;4.40;;;;;;;;;;5011215;28;20180;-76
2021/04/17 04:42:05;;;;;;;7.97;4.20;;;;;;;;;;5011489;28;20215;-76
2021/04/17 04:44:31;;;;;;;8.37;3.83;;;;;;;;;;5011149;28;20647;-76
2021/04/17 04:46:57;;;;;;;9.33;4.30;;;;;;;;;;5012159;28;20178;-76
2021/04/17 04:49:23;;;;;;;8.43;4.10;;;;;;;;;;5011095;28;20180;-76
2021/04/17 04:51:49;;;;;;;8.83;4.13;;;;;;;;;;5011252;28;20695;-75
2021/04/17 04:54:15;;;;;;;6.03;4.50;;;;;;;;;;5012361;28;20186;-76
2021/04/17 04:56:41;;;;;;;8.17;4.93;;;;;;;;;;4994626;28;20207;-76
2021/04/17 04:59:07;;;;;;;10.43;4.60;;;;;;;;;;5011066;28;20176;-75
2021/04/17 05:01:33;;;;;;;10.33;5.10;;;;;;;;;;5011094;28;20241;-75
2021/04/17 05:03:59;;;;;;;6.87;4.60;;;;;;;;;;4994837;28;20181;-76
2021/04/17 05:06:25;;;;;;;7.07;4.00;;;;;;;;;;5011644;28;20212;-76
2021/04/17 05:08:51;;;;;;;8.83;4.60;;;;;;;;;;5011407;28;20178;-76
2021/04/17 05:11:17;;;;;;;11.43;4.70;;;;;;;;;;4994639;28;20186;-76
2021/04/17 05:13:43;;;;;;;6.90;4.43;;;;;;;;;;4994685;28;20219;-76
2021/04/17 05:16:09;;;;;;;9.70;4.40;;;;;;;;;;4996190;28;20809;-76
2021/04/17 05:18:35;;;;;;;7.93;4.27;;;;;;;;;;5014991;28;20252;-76
2021/04/17 05:21:01;;;;;;;10.43;4.90;;;;;;;;;;5016005;28;20195;-76
2021/04/17 05:23:27;;;;;;;7.13;4.40;;;;;;;;;;5014798;28;20671;-76
2021/04/17 05:25:53;;;;;;;6.83;4.47;;;;;;;;;;4998417;28;20209;-76
2021/04/17 05:28:19;;;;;;;8.83;4.67;;;;;;;;;;4998033;28;20542;-76
2021/04/17 05:30:45;;;;;;;9.07;4.20;;;;;;;;;;5014696;28;20186;-76
2021/04/17 05:33:11;;;;;;;7.27;4.30;;;;;;;;;;5014463;28;20622;-76
2021/04/17 05:35:37;;;;;;;11.63;4.80;;;;;;;;;;5014544;28;20285;-76
2021/04/17 05:38:03;;;;;;;8.77;4.93;;;;;;;;;;5013954;28;20553;-75
2021/04/17 05:40:29;;;;;;;8.23;4.23;;;;;;;;;;4998036;28;20242;-76
2021/04/17 05:42:55;;;;;;;8.10;4.63;;;;;;;;;;5014409;28;20175;-76
2021/04/17 05:45:21;;;;;;;8.67;4.60;;;;;;;;;;5014491;28;20570;-76
2021/04/17 05:47:47;;;;;;;7.50;4.77;;;;;;;;;;5014119;28;20176;-76
2021/04/17 05:50:13;;;;;;;7.03;3.87;;;;;;;;;;5014553;28;20193;-76
2021/04/17 05:52:39;;;;;;;8.67;4.43;;;;;;;;;;5015335;28;20194;-76
2021/04/17 05:55:05;;;;;;;10.60;4.50;;;;;;;;;;5015469;28;20439;-76
2021/04/17 05:57:31;;;;;;;8.77;4.10;;;;;;;;;;5013883;28;20191;-76
2021/04/17 05:59:58;;;;;;;7.23;4.27;;;;;;;;;;4994364;28;20621;-76
2021/04/17 06:02:24;;;;;;;11.50;4.80;;;;;;;;;;4997514;28;20224;-76
2021/04/17 06:04:50;;;;;;;10.80;4.30;;;;;;;;;;4997524;28;20259;-76
2021/04/17 06:07:16;;;;;;;11.50;4.57;;;;;;;;;;5014975;28;20578;-76
2021/04/17 06:09:42;;;;;;;8.17;4.10;;;;;;;;;;5015133;28;20236;-76
2021/04/17 06:12:08;;;;;;;7.77;4.60;;;;;;;;;;4997731;28;20182;-75
2021/04/17 06:14:34;;;;;;;7.00;4.17;;;;;;;;;;4997191;28;20225;-74
2021/04/17 06:17:00;;;;;;;11.77;4.80;;;;;;;;;;5013624;28;20176;-74
2021/04/17 06:19:26;;;;;;;5.90;4.10;;;;;;;;;;4997501;28;20179;-74
2021/04/17 06:21:53;;;;;;;6.83;3.97;;;;;;;;;;5014717;28;20219;-74
2021/04/17 06:24:18;;;;;;;8.03;4.43;;;;;;;;;;5003671;28;20180;-75
2021/04/17 06:26:44;;;;;;;7.07;4.33;;;;;;;;;;5002208;28;20198;-75
2021/04/17 06:29:10;;;;;;;10.40;4.43;;;;;;;;;;4990918;28;20275;-75
2021/04/17 06:31:36;;;;;;;7.37;4.20;;;;;;;;;;4977615;28;20273;-74
2021/04/17 06:34:02;;;;;;;6.90;3.80;;;;;;;;;;4994028;28;20196;-76
2021/04/17 06:36:28;;;;;;;9.70;3.83;;;;;;;;;;4993746;28;20218;-77
2021/04/17 06:38:54;;;;;;;8.27;3.30;;;;;;;;;;4978480;28;20232;-76
2021/04/17 06:41:21;;;;;;;9.60;4.10;;;;;;;;;;4995689;28;20675;-76
2021/04/17 06:43:47;;;;;;;7.07;3.60;;;;;;;;;;4994522;28;20179;-76
2021/04/17 06:46:13;;;;;;;15.53;4.33;;;;;;;;;;4977857;28;20208;-76
2021/04/17 06:48:42;;;;;;;7.23;3.23;;;;;;;;;;4993840;28;20183;-76
2021/04/17 06:51:15;;;;;;;6.37;3.60;;;;;;;;;;4978017;28;20215;-76
2021/04/17 06:53:41;;;;;;;7.77;3.80;;;;;;;;;;4994179;28;20176;-76
2021/04/17 06:56:07;;;;;;;12.03;3.67;;;;;;;;;;4977649;28;20212;-76
2021/04/17 06:58:33;;;;;;;8.77;3.70;;;;;;;;;;4993636;28;20318;-76
2021/04/17 07:00:59;;;;;;;10.47;3.77;;;;;;;;;;4978206;28;20692;-78
2021/04/17 07:03:25;;;;;;;6.53;3.30;;;;;;;;;;4984963;28;20235;-77
2021/04/17 07:05:51;;;;;;;11.57;4.00;;;;;;;;;;4998537;28;20229;-78
2021/04/17 07:08:17;;;;;;;9.20;3.83;;;;;;;;;;5014289;28;20177;-76
2021/04/17 07:10:43;;;;;;;8.50;3.80;;;;;;;;;;4997344;28;20239;-77
2021/04/17 07:13:13;;;;;;;9.67;4.17;;;;;;;;;;5014184;28;20578;-79
2021/04/17 07:15:39;;;;;;;8.93;3.90;;;;;;;;;;4998786;28;20206;-77
2021/04/17 07:18:24;;;;;;;8.23;3.77;;;;;;;;;;4998521;28;20627;-79
2021/04/17 07:20:50;;;;;;;8.33;4.40;;;;;;;;;;5014300;28;20305;-79
2021/04/17 07:23:31;;;;;;;10.67;4.30;;;;;;;;;;4993760;28;20186;-78
2021/04/17 07:26:07;;;;;;;10.70;4.60;;;;;;;;;;4999660;28;20288;-80
2021/04/17 07:28:35;;;;;;;12.97;4.23;;;;;;;;;;5003649;28;20186;-78
2021/04/17 07:31:01;;;;;;;7.37;3.77;;;;;;;;;;5003470;28;20178;-79
2021/04/17 07:33:30;;;;;;;7.77;4.03;;;;;;;;;;4982572;28;20187;-81
2021/04/17 07:35:56;;;;;;;9.33;4.37;;;;;;;;;;4996611;28;20198;-79
2021/04/17 07:38:23;;;;;;;8.93;4.43;;;;;;;;;;5010073;28;20187;-80
2021/04/17 07:41:03;;;;;;;11.13;4.53;;;;;;;;;;5010276;28;20643;-81
2021/04/17 07:43:48;;;;;;;9.07;4.10;;;;;;;;;;5012623;28;20273;-78
2021/04/17 07:46:15;;;;;;;6.77;4.27;;;;;;;;;;4996179;28;20206;-79
2021/04/17 07:48:41;;;;;;;11.80;3.60;;;;;;;;;;4997614;28;20565;-79
2021/04/17 07:51:08;;;;;;;8.60;4.43;;;;;;;;;;4998483;28;20192;-78
2021/04/17 07:53:34;;;;;;;13.30;4.37;;;;;;;;;;5013946;28;20181;-79
2021/04/17 07:56:19;;;;;;;11.70;4.27;;;;;;;;;;5015573;28;20279;-80
2021/04/17 07:58:45;;;;;;;10.70;4.23;;;;;;;;;;5014716;28;20181;-79
2021/04/17 08:01:11;;;;;;;10.07;4.40;;;;;;;;;;4985889;28;20195;-78
2021/04/17 08:03:37;;;;;;;12.13;4.30;;;;;;;;;;4977425;28;20181;-78
2021/04/17 08:06:04;;;;;;;9.83;4.50;;;;;;;;;;4994500;28;20220;-78
2021/04/17 08:08:30;;;;;;;9.87;4.30;;;;;;;;;;5026711;28;20190;-78
2021/04/17 08:10:56;;;;;;;10.23;4.70;;;;;;;;;;5014836;28;20212;-79
2021/04/17 08:13:22;;;;;;;11.37;4.00;;;;;;;;;;5067854;22;20231;-74
2021/04/17 08:15:48;;;;;;;11.60;4.77;;;;;;;;;;5050411;28;20542;-73
2021/04/17 08:18:13;;;;;;;8.97;4.83;;;;;;;;;;5050779;28;20181;-74
2021/04/17 08:20:39;;;;;;;8.63;4.30;;;;;;;;;;5050836;28;20203;-74
2021/04/17 08:23:05;;;;;;;8.53;4.40;;;;;;;;;;5041731;28;20205;-74
2021/04/17 08:25:33;;;;;;;9.90;4.40;;;;;;;;;;5032368;28;20181;-73
2021/04/17 08:27:59;;;;;;;8.40;4.13;;;;;;;;;;5031047;28;20176;-74
2021/04/17 08:30:26;;;;;;;8.77;4.53;;;;;;;;;;5014686;28;20566;-74
2021/04/17 08:32:52;;;;;;;9.97;4.47;;;;;;;;;;5032091;28;20260;-74
2021/04/17 08:35:18;;;;;;;10.30;4.50;;;;;;;;;;5030937;28;20221;-74
2021/04/17 08:37:56;;;;;;;10.70;4.53;;;;;;;;;;5031265;28;20182;-74
2021/04/17 08:40:40;;;;;;;9.33;4.23;;;;;;;;;;5031997;28;20208;-75
2021/04/17 08:43:26;;;;;;;9.40;4.43;;;;;;;;;;5030708;28;20688;-74
2021/04/17 08:46:03;;;;;;;13.57;4.70;;;;;;;;;;5031943;28;20559;-75
2021/04/17 08:48:47;;;;;;;13.70;5.07;;;;;;;;;;5030539;28;20181;-74
2021/04/17 08:51:22;;;;;;;9.93;4.40;;;;;;;;;;5031159;28;20186;-75
2021/04/17 08:53:49;;;;;;;11.37;4.63;;;;;;;;;;5030538;28;20270;-74
2021/04/17 08:56:15;;;;;;;9.67;4.40;;;;;;;;;;5030722;28;20202;-74
2021/04/17 08:58:41;;;;;;;9.70;4.00;;;;;;;;;;5030604;28;20280;-74
2021/04/17 09:01:09;;;;;;;7.87;3.37;;;;;;;;;;5030703;28;20208;-74
2021/04/17 09:03:44;;;;;;;8.33;3.80;;;;;;;;;;5030746;28;20194;-74
2021/04/17 09:06:26;;;;;;;8.47;3.50;;;;;;;;;;5031784;28;20545;-73
2021/04/17 09:09:10;;;;;;;7.97;3.60;;;;;;;;;;5031607;28;20234;-74
2021/04/17 09:11:37;;;;;;;9.70;3.70;;;;;;;;;;5032112;28;20585;-77
2021/04/17 09:14:03;;;;;;;8.60;3.53;;;;;;;;;;5030476;28;20224;-74
2021/04/17 09:16:39;;;;;;;6.60;3.70;;;;;;;;;;5014204;28;20181;-73
2021/04/17 09:19:05;;;;;;;12.30;4.00;;;;;;;;;;5030558;28;20187;-73
2021/04/17 09:21:32;;;;;;;9.83;3.63;;;;;;;;;;5014077;28;20237;-72
2021/04/17 09:23:58;;;;;;;4.77;2.80;;;;;;;;;;5030430;28;20212;-74
2021/04/17 09:26:33;;;;;;;6.10;2.80;;;;;;;;;;5031600;28;20179;-73
2021/04/17 09:29:06;;;;;;;5.47;3.47;;;;;;;;;;5029895;28;20178;-72
2021/04/17 09:31:35;;;;;;;6.67;3.20;;;;;;;;;;5028646;28;20188;-73
2021/04/17 09:34:01;;;;;;;8.17;3.20;;;;;;;;;;5029827;28;20292;-77
2021/04/17 09:36:27;;;;;;;10.13;3.33;;;;;;;;;;5013247;28;20187;-74
2021/04/17 09:38:53;;;;;;;9.80;3.10;;;;;;;;;;5030164;28;20190;-74
2021/04/17 09:41:19;;;;;;;7.47;3.47;;;;;;;;;;5030250;28;20210;-75
2021/04/17 09:43:46;;;;;;;9.20;3.50;;;;;;;;;;5035405;28;20731;-75
2021/04/17 09:46:16;;;;;;;7.33;3.27;;;;;;;;;;5040380;28;20550;-74
2021/04/17 09:48:42;;;;;;;6.93;2.90;;;;;;;;;;5036912;28;20179;-74
2021/04/17 09:51:25;;;;;;;7.30;2.77;;;;;;;;;;5036552;28;20726;-78
2021/04/17 09:53:52;;;;;;;7.73;3.17;;;;;;;;;;5013563;28;20210;-74
2021/04/17 09:56:27;;;;;;;5.23;3.07;;;;;;;;;;5030367;28;20179;-74
2021/04/17 09:58:53;;;;;;;6.17;3.47;;;;;;;;;;5013553;28;20274;-77
2021/04/17 10:01:20;;;;;;;6.73;2.70;;;;;;;;;;5031601;28;20246;-75
2021/04/17 10:03:53;;;;;;;8.90;3.00;;;;;;;;;;5033196;28;20197;-75
2021/04/17 10:06:26;;;;;;;8.03;3.20;;;;;;;;;;5033781;28;20183;-75
2021/04/17 10:08:52;;;;;;;3.97;2.07;;;;;;;;;;5016685;28;20659;-75
2021/04/17 10:11:23;;;;;;;5.00;1.90;;;;;;;;;;5031028;28;20217;-74
2021/04/17 10:13:49;;;;;;;3.50;1.70;;;;;;;;;;5033382;28;20637;-76
2021/04/17 10:16:15;;;;;;;6.87;2.00;;;;;;;;;;5016526;28;20186;-73
2021/04/17 10:18:44;;;;;;;6.57;2.13;;;;;;;;;;5032919;28;20185;-74
2021/04/17 10:21:11;;;;;;;4.17;2.20;;;;;;;;;;5024679;28;20220;-74
2021/04/17 10:23:37;;;;;;;6.77;1.90;;;;;;;;;;5034506;28;20221;-74
2021/04/17 10:26:12;;;;;;;4.03;1.83;;;;;;;;;;5042383;28;20645;-75
2021/04/17 10:28:38;;;;;;;4.57;1.70;;;;;;;;;;5040718;28;20185;-75
2021/04/17 10:31:24;;;;;;;4.20;2.00;;;;;;;;;;5041889;28;20178;-75
2021/04/17 10:33:50;;;;;;;3.23;1.57;;;;;;;;;;5044583;28;20624;-75
2021/04/17 10:36:17;;;;;;;3.03;1.57;;;;;;;;;;5025937;28;20185;-75
2021/04/17 10:38:43;;;;;;;5.30;1.70;;;;;;;;;;5025234;28;20174;-75
2021/04/17 10:41:13;;;;;;;3.07;1.43;;;;;;;;;;5027126;28;20208;-75
2021/04/17 10:43:39;;;;;;;2.30;1.40;;;;;;;;;;5042709;28;20285;-75
2021/04/17 10:46:05;;;;;;;3.43;1.63;;;;;;;;;;5041784;28;20267;-75
2021/04/17 10:48:42;;;;;;;3.10;1.60;;;;;;;;;;5026626;28;20675;-75
2021/04/17 10:51:12;;;;;;;2.77;1.40;;;;;;;;;;5044598;28;20565;-75
2021/04/17 10:53:42;;;;;;;3.93;1.63;;;;;;;;;;5042102;28;20260;-75
2021/04/17 10:56:12;;;;;;;3.60;1.70;;;;;;;;;;5024959;28;20235;-75
2021/04/17 10:58:38;;;;;;;4.93;1.70;;;;;;;;;;5042069;28;20188;-75
2021/04/17 11:01:05;;;;;;;4.37;1.93;;;;;;;;;;5041738;28;20846;-75
2021/04/17 11:03:32;;;;;;;4.97;2.07;;;;;;;;;;5039580;28;20669;-75
2021/04/17 11:05:58;;;;;;;5.10;1.70;;;;;;;;;;5029564;28;20599;-76
2021/04/17 11:08:25;;;;;;;5.23;1.70;;;;;;;;;;5041519;28;20217;-75
2021/04/17 11:10:51;;;;;;;3.70;1.60;;;;;;;;;;5027281;28;20193;-75
2021/04/17 11:13:27;;;;;;;3.17;1.80;;;;;;;;;;5047082;28;20221;-72
2021/04/17 11:15:53;;;;;;;2.73;1.80;;;;;;;;;;5039279;28;20177;-75
2021/04/17 11:18:20;;;;;;;3.23;1.60;;;;;;;;;;5032120;28;20554;-74
2021/04/17 11:20:52;;;;;;;3.93;1.90;;;;;;;;;;5032907;28;20569;-74
2021/04/17 11:23:31;;;;;;;3.97;1.90;;;;;;;;;;5033180;28;20223;-75
2021/04/17 11:25:57;;;;;;;5.77;2.10;;;;;;;;;;5015715;28;20179;-74
2021/04/17 11:28:23;;;;;;;3.57;1.67;;;;;;;;;;5020481;28;20268;-74
2021/04/17 11:30:52;;;;;;;4.37;1.90;;;;;;;;;;5038167;28;20779;-74
2021/04/17 11:33:18;;;;;;;4.03;1.87;;;;;;;;;;5032083;28;20217;-74
2021/04/17 11:35:43;;;;;;;4.67;2.13;;;;;;;;;;5015500;28;20189;-74
2021/04/17 11:38:09;;;;;;;2.60;1.80;;;;;;;;;;5031554;28;20184;-74
2021/04/17 11:40:35;;;;;;;4.43;2.20;;;;;;;;;;5032795;28;20236;-74
2021/04/17 11:43:01;;;;;;;5.30;2.07;;;;;;;;;;5015263;28;20216;-74
2021/04/17 11:45:27;;;;;;;3.63;1.77;;;;;;;;;;5031747;28;20178;-74
2021/04/17 11:47:53;;;;;;;6.83;2.00;;;;;;;;;;5043243;28;20184;-74
2021/04/17 11:50:19;;;;;;;4.80;1.97;;;;;;;;;;5020307;28;20237;-74
2021/04/17 11:52:45;;;;;;;6.03;2.00;;;;;;;;;;5033158;28;20582;-74
2021/04/17 11:55:11;;;;;;;5.33;2.30;;;;;;;;;;5031408;28;20193;-74
2021/04/17 11:57:37;;;;;;;4.17;2.13;;;;;;;;;;5032470;28;20185;-74
2021/04/17 12:00:04;;;;;;;4.20;2.17;;;;;;;;;;5031399;28;20622;-74
2021/04/17 12:02:30;;;;;;;4.33;1.90;;;;;;;;;;5040864;28;20263;-74
2021/04/17 12:04:56;;;;;;;5.10;2.40;;;;;;;;;;5044629;28;20197;-75
2021/04/17 12:07:22;;;;;;;3.33;1.87;;;;;;;;;;5041552;28;20187;-76
2021/04/17 12:09:48;;;;;;;3.00;1.70;;;;;;;;;;5031258;28;20202;-75
2021/04/17 12:12:14;;;;;;;4.90;1.83;;;;;;;;;;5032809;28;20371;-75
2021/04/17 12:14:40;;;;;;;4.20;1.63;;;;;;;;;;5015087;28;20261;-76
2021/04/17 12:17:06;;;;;;;3.83;1.87;;;;;;;;;;5032467;28;20171;-77
2021/04/17 12:19:32;;;;;;;3.87;1.80;;;;;;;;;;5031361;28;20181;-75
2021/04/17 12:21:59;;;;;;;4.97;1.90;;;;;;;;;;5032630;28;20576;-76
2021/04/17 12:24:24;;;;;;;8.63;1.93;;;;;;;;;;5031277;28;20560;-75
2021/04/17 12:26:51;;;;;;;5.53;1.90;;;;;;;;;;5032349;28;20290;-74
2021/04/17 12:29:17;;;;;;;2.83;1.60;;;;;;;;;;5032236;28;20175;-74
2021/04/17 12:31:43;;;;;;;3.50;1.77;;;;;;;;;;5031749;28;20181;-73
2021/04/17 12:34:09;;;;;;;4.23;1.90;;;;;;;;;;5031087;28;20203;-74
2021/04/17 12:36:35;;;;;;;3.93;1.70;;;;;;;;;;5032033;28;20182;-75
2021/04/17 12:39:01;;;;;;;4.60;1.70;;;;;;;;;;5030409;28;20191;-74
2021/04/17 12:41:27;;;;;;;5.23;1.93;;;;;;;;;;5029236;28;20278;-75
2021/04/17 12:43:53;;;;;;;4.13;1.90;;;;;;;;;;5029967;28;20248;-76
2021/04/17 12:46:19;;;;;;;5.97;1.93;;;;;;;;;;5034611;28;20182;-75
2021/04/17 12:48:45;;;;;;;5.97;1.90;;;;;;;;;;5044034;28;20178;-75
2021/04/17 12:51:10;;;;;;;6.63;2.40;;;;;;;;;;5050431;28;20610;-75
2021/04/17 12:53:36;;;;;;;4.47;2.30;;;;;;;;;;5043729;28;20577;-74
2021/04/17 12:56:03;;;;;;;4.30;1.93;;;;;;;;;;5023492;28;20178;-75
2021/04/17 12:58:28;;;;;;;4.10;1.90;;;;;;;;;;5042389;28;20261;-75
2021/04/17 13:00:54;;;;;;;5.30;2.70;;;;;;;;;;5043077;28;20371;-75
2021/04/17 13:03:20;;;;;;;4.63;2.07;;;;;;;;;;5051779;28;20206;-75
2021/04/17 13:05:46;;;;;;;4.40;2.20;;;;;;;;;;5050914;28;20176;-74
2021/04/17 13:08:12;;;;;;;4.00;2.00;;;;;;;;;;5040794;28;20183;-74
2021/04/17 13:10:38;;;;;;;5.10;2.20;;;;;;;;;;5030582;28;20183;-74
2021/04/17 13:13:04;;;;;;;6.27;2.13;;;;;;;;;;5031742;28;20289;-74
2021/04/17 13:15:30;;;;;;;4.97;2.20;;;;;;;;;;5030591;28;20240;-73
2021/04/17 13:17:56;;;;;;;4.13;2.07;;;;;;;;;;5030478;28;20555;-74
2021/04/17 13:20:22;;;;;;;4.43;2.27;;;;;;;;;;5048010;28;20683;-74
2021/04/17 13:22:48;;;;;;;5.37;2.20;;;;;;;;;;5049449;28;20671;-75
2021/04/17 13:25:14;;;;;;;4.20;2.03;;;;;;;;;;5031678;28;20203;-75
2021/04/17 13:27:41;;;;;;;4.10;2.00;;;;;;;;;;5048413;28;20212;-75
2021/04/17 13:30:07;;;;;;;5.60;2.77;;;;;;;;;;5051624;28;20178;-74
2021/04/17 13:32:33;;;;;;;3.63;2.37;;;;;;;;;;5051450;28;20575;-74
2021/04/17 13:34:59;;;;;;;4.00;2.23;;;;;;;;;;5051706;28;20606;-73
2021/04/17 13:37:27;;;;;;;4.33;2.27;;;;;;;;;;5051048;28;20186;-74
2021/04/17 13:39:53;;;;;;;7.20;2.30;;;;;;;;;;5055493;28;20265;-73
2021/04/17 13:42:20;;;;;;;6.07;2.30;;;;;;;;;;5037568;28;20356;-73
2021/04/17 13:44:46;;;;;;;4.33;2.00;;;;;;;;;;5055679;28;20209;-73
2021/04/17 13:47:12;;;;;;;5.37;2.37;;;;;;;;;;5053910;28;20178;-72
2021/04/17 13:49:38;;;;;;;4.13;2.20;;;;;;;;;;5054282;28;20186;-73
2021/04/17 13:52:04;;;;;;;4.27;2.50;;;;;;;;;;5055648;28;20174;-74
2021/04/17 13:54:30;;;;;;;5.27;2.47;;;;;;;;;;5045340;28;20229;-74
2021/04/17 13:56:57;;;;;;;4.47;2.10;;;;;;;;;;5066929;28;20191;-74
2021/04/17 13:59:23;;;;;;;6.33;2.67;;;;;;;;;;5037488;28;20190;-76
2021/04/17 14:01:49;;;;;;;6.50;2.40;;;;;;;;;;5069539;28;20268;-75
2021/04/17 14:04:14;;;;;;;4.67;2.60;;;;;;;;;;5033834;28;20175;-74
2021/04/17 14:06:40;;;;;;;5.27;2.07;;;;;;;;;;5032517;28;20542;-75
2021/04/17 14:09:06;;;;;;;4.57;2.30;;;;;;;;;;5031901;28;20187;-75
2021/04/17 14:11:32;;;;;;;6.50;2.40;;;;;;;;;;5033549;28;20190;-75
2021/04/17 14:13:58;;;;;;;7.20;2.23;;;;;;;;;;5033818;28;20301;-74
2021/04/17 14:16:24;;;;;;;3.87;1.83;;;;;;;;;;5032245;28;20530;-74
2021/04/17 14:18:50;;;;;;;5.40;1.90;;;;;;;;;;5031908;28;20655;-75
2021/04/17 14:21:16;;;;;;;4.00;2.20;;;;;;;;;;5033401;28;20264;-74
2021/04/17 14:23:48;;;;;;;3.73;1.90;;;;;;;;;;5032099;28;20203;-73
2021/04/17 14:26:14;;;;;;;6.60;2.07;;;;;;;;;;5032224;28;20178;-74
2021/04/17 14:28:40;;;;;;;5.93;2.73;;;;;;;;;;5031892;28;20175;-74
2021/04/17 14:31:06;;;;;;;4.90;2.40;;;;;;;;;;5032068;28;20178;-74
2021/04/17 14:33:31;;;;;;;7.03;2.50;;;;;;;;;;5031770;28;20298;-74
2021/04/17 14:35:58;;;;;;;6.80;2.47;;;;;;;;;;5031527;28;20179;-74
2021/04/17 14:38:23;;;;;;;4.17;2.00;;;;;;;;;;5032839;28;20704;-74
2021/04/17 14:40:49;;;;;;;6.87;2.53;;;;;;;;;;5033251;28;20203;-74
2021/04/17 14:43:16;;;;;;;6.00;2.20;;;;;;;;;;5034248;28;20639;-74
2021/04/17 14:45:42;;;;;;;5.87;2.40;;;;;;;;;;5016391;28;20193;-74
2021/04/17 14:48:08;;;;;;;5.93;2.37;;;;;;;;;;5032456;28;20254;-74
2021/04/17 14:50:34;;;;;;;4.63;2.07;;;;;;;;;;5016351;28;20233;-75
2021/04/17 14:53:00;;;;;;;3.43;2.33;;;;;;;;;;5033723;28;20203;-75
2021/04/17 14:55:26;;;;;;;5.20;2.07;;;;;;;;;;5032650;28;20182;-74